This is the latest recevied weather packets stored in our database for station/object OE6PLD-13. If no packets are shown the sender has not sent any weather packets the latest 1 day(s).
| Time | Temp. | Humidity | Pressure | Rain* | Wind** | Luminosity | Snow |
|---|---|---|---|---|---|---|---|
| 1777974157 | 26.11° C | 31% | 1012.9 hPa | 0.76 mm | 1.34 m/s, 251° | 630 W/m² | - |
| 1777973974 | 25.56° C | 34% | 1012.8 hPa | 0.76 mm | 1.34 m/s, 251° | 622 W/m² | - |
| 1777973790 | 25.56° C | 33% | 1012.9 hPa | 0.76 mm | 0.89 m/s, 249° | 612 W/m² | - |
| 1777973607 | 25.56° C | 32% | 1012.8 hPa | 0.76 mm | 2.24 m/s, 248° | 609 W/m² | - |
| 1777973424 | 25° C | 30% | 1012.8 hPa | 0.76 mm | 0.89 m/s, 248° | 612 W/m² | - |
| 1777973240 | 25.56° C | 30% | 1012.8 hPa | 0.76 mm | 0.89 m/s, 248° | 612 W/m² | - |
| 1777973057 | 25° C | 31% | 1012.8 hPa | 0.76 mm | 0.89 m/s, 247° | 630 W/m² | - |
| 1777972873 | 24.44° C | 31% | 1013 hPa | 0.76 mm | 1.34 m/s, 247° | 617 W/m² | - |
| 1777972690 | 25° C | 31% | 1013 hPa | 0.76 mm | 0 m/s | 622 W/m² | - |
| 1777972507 | 24.44° C | 30% | 1013 hPa | 0.76 mm | 1.34 m/s, 247° | 620 W/m² | - |
| 1777972332 | 24.44° C | 32% | 1013.1 hPa | 0.76 mm | 1.34 m/s, 246° | 643 W/m² | - |
| 1777972140 | 24.44° C | 34% | 1013.1 hPa | 0.76 mm | 0 m/s | 635 W/m² | - |
| 1777971957 | 23.89° C | 32% | 1008.9 hPa | 0.76 mm | 0.45 m/s, 241° | 629 W/m² | - |
| 1777971773 | 23.89° C | 32% | 1008.9 hPa | 0.76 mm | 0.45 m/s, 241° | 629 W/m² | - |
| 1777971590 | 23.89° C | 34% | 1009 hPa | 0.76 mm | 0.89 m/s, 240° | 645 W/m² | - |
| 1777971407 | 23.89° C | 35% | 1009 hPa | 0.76 mm | 0.45 m/s, 239° | 685 W/m² | - |
| 1777971223 | 23.89° C | 34% | 1009.1 hPa | 0.76 mm | 0.45 m/s, 236° | 714 W/m² | - |
| 1777971040 | 23.33° C | 38% | 1008.9 hPa | 0.76 mm | 1.34 m/s, 234° | 713 W/m² | - |
| 1777970856 | 23.33° C | 40% | 1009 hPa | 0.76 mm | 0.89 m/s, 232° | 708 W/m² | - |
| 1777970673 | 22.78° C | 41% | 1008.9 hPa | 0.76 mm | 0.45 m/s, 232° | 704 W/m² | - |
| 1777970490 | 22.78° C | 40% | 1009.1 hPa | 0.76 mm | 2.68 m/s, 228° | 701 W/m² | - |
| 1777970306 | 22.78° C | 39% | 1009.2 hPa | 0.76 mm | 0.89 m/s, 226° | 639 W/m² | - |
| 1777970123 | 22.78° C | 40% | 1009.1 hPa | 0.76 mm | 0.89 m/s, 224° | 595 W/m² | - |
| 1777969940 | 22.78° C | 42% | 1009 hPa | 0.76 mm | 0.45 m/s, 223° | 620 W/m² | - |
| 1777969756 | 22.22° C | 43% | 1009 hPa | 0.76 mm | 0.45 m/s, 224° | 638 W/m² | - |
* Rain latest hour (hover to see other rain measurements)
** Current wind speed in m/s (hover to see current wind gust speed)